Nipawin Airport
CYBU : now visible

Airfield :











YOU CAN JOIN US ON...

 
LOGIN :

Register | Disclaimer

   EN    FR    IT 

 









Legend :    VFR   Marginal VFR   IFR   Intensive IFR   Very Intensive IFR
Visi :
Ceiling :
>= 8 km
>= 3000ft
5 to 8 km
1000 to 3000 ft
1500m to 5 km
500 to 1000 ft
800 to 1500m
200 to 500 ft
< 800m
< 200 ft
Symbols :   Thunderstorms  Fog  Heavy snow  Heavy precipitations  Wind > 20 kt






- Airport Elevation : 1220 ft


CYBU - Nipawin

CURRENT METAR :
  • 170000Z AUTO 28021G28KT 9SM -RA OVC044 08/08 A2944 RMK PCPN 1.5MM PAST HR SLP980

EXPIRED METARs :
  • 162300Z AUTO 29027G37KT 9SM -RA SCT027 BKN034 OVC043 08/08 A2937 RMK PCPN 2.0MM PAST HR SLP957
  • 162200Z AUTO 29026G35KT 8SM -RA SCT022 SCT027 OVC034 09/09 A2930 RMK PRESRR PCPN 5.5MM PAST HR SLP932 DENSITY ALT 1500FT
  • 162131Z AUTO 30019G33KT 6SM -RA BR FEW025 BKN036 OVC044 09/09 A2927 RMK PRESRR PCPN 4.0MM PAST HR SLP923 DENSITY ALT 1600FT
  • 162100Z AUTO 29027G42KT 4SM RA BR FEW021 BKN047 OVC055 09/09 A2921 RMK PRESRR PCPN 3.0MM PAST HR SLP903 DENSITY ALT 1700FT
  • 162059Z AUTO 29028G42KT 4SM RA BR FEW021 BKN047 OVC055 09/09 A2921 RMK PRESRR PCPN 2.8MM PAST HR SLP904 DENSITY ALT 1700FT
  • 162028Z AUTO 29038G53KT 9SM -RA FEW015 SCT022 BKN031 OVC049 11/10 A2911 RMK PCPN 1.0MM PAST HR SLP867 DENSITY ALT 2000FT
  • 162018Z AUTO 28028G40KT 7SM -RA SCT015 BKN031 BKN041 OVC055 11/10 A2910 RMK PRESRR PCPN 1.0MM PAST HR SLP864 DENSITY ALT 2000FT
  • 161957Z AUTO 27032G43KT 5SM RA BR BKN015 BKN024 OVC029 10/10 A2906 RMK LTNG DIST N PCPN 2.8MM PAST HR SLP850 DENSITY ALT 2000FT

TAF N/A
CZWG FIR / North America



MET'MAP, your aeronautical weather chart ! - Copyright ORBIFLY December 2007 - Disclaimer

ORBIFLY MET'MAP TEAM :

Programming & Development : Alexandra Zaïnal
Original concept : Baudouin d'Aumeries
Technical & hardware support : Manuel Goepfert
Assistance : Marc-Olivier Méhu




SOURCES & CREDITS :

   NOAA       Earth
Advisory